Airfield :
LOGIN :

Register | Disclaimer

   EN    FR    IT 

 










Legend :    VFR   Marginal VFR   IFR   Intensive IFR   Very Intensive IFR
Visi :
Ceiling :
>= 8 km
>= 3000ft
5 to 8 km
1000 to 3000 ft
1500m to 5 km
500 to 1000 ft
800 to 1500m
200 to 500 ft
< 800m
< 200 ft
Symbols :   Thunderstorms  Fog  Heavy snow  Heavy precipitations  Wind > 20 kt
SIGMETs :     Misc.  Thunderstorms  Icing  Turbulence  Mountain Waves  Volcanic Ashes






- Airport Elevation : 352 ft
- IATA code : KSD


ESOK - Karlstad

CURRENT METAR :
  • 201950Z 05010KT 9999 BKN005 OVC008 04/04 Q1024

EXPIRED METARs :
  • 201920Z 06009KT 9999 BKN004 04/04 Q1025
  • 201850Z 05008KT 9999 FEW004 BKN005 BKN008 04/04 Q1025
  • 201820Z 06008KT 9999 OVC005 04/04 Q1025
  • 201750Z 06007KT 9999 OVC006 04/04 Q1025
  • 201720Z 06007KT 9999 OVC005 04/04 Q1025

TAF TAF ESOK
Valid from the 20 at 18:00 until the 20 at 21:00 UTC


201730Z 2018/2021 06006KT 9999 BKN006
PROB40 2018/2021 1200 BR BKN003



MET'MAP, your aeronautical weather chart ! - Copyright ORBIFLY December 2007 - Disclaimer

ORBIFLY MET'MAP TEAM :

Programming & Development : Alexandra Zaïnal
Concept & Development : Baudouin d'Aumeries
Co-Development & Prog : Marc-Olivier Méhu
Technical & hardware support : Manuel Goepfert

Contact : metmap@orbifly.com




SOURCES & CREDITS :

   NOAA